Time;durP1;ratioP1;P1;durP2;ratioP2;P2;SDS_P1;SDS_P2;PMS_P1;PMS_P2;Temp;Humidity;BMP_temperature;BMP_pressure;BME280_temperature;BME280_humidity;BME280_pressure;Samples;Min_cycle;Max_cycle;Signal;HPM_P1;HPM_P2
2022/09/18 00:01:31;;;;;;;10.02;6.60;;;;;;;8.28;100.00;98179.38;5173704;27;20098;-58
2022/09/18 00:04:00;;;;;;;12.05;6.60;;;;;;;8.27;100.00;98177.81;5173890;27;20054;-57
2022/09/18 00:06:29;;;;;;;18.40;7.07;;;;;;;8.18;100.00;98166.38;5173899;27;20050;-56
2022/09/18 00:08:57;;;;;;;10.70;6.20;;;;;;;8.19;100.00;98155.06;5174138;27;20129;-55
2022/09/18 00:11:26;;;;;;;14.52;6.35;;;;;;;8.20;100.00;98153.16;5173577;27;20497;-56
2022/09/18 00:13:53;;;;;;;12.80;6.60;;;;;;;8.17;100.00;98157.41;5173919;27;20050;-56
2022/09/18 00:16:21;;;;;;;19.10;7.30;;;;;;;8.09;100.00;98160.41;5173616;27;20050;-58
2022/09/18 00:18:48;;;;;;;12.98;6.50;;;;;;;8.07;100.00;98155.34;5173735;27;20496;-54
2022/09/18 00:21:16;;;;;;;20.40;6.65;;;;;;;8.12;100.00;98143.28;5173491;27;20046;-54
2022/09/18 00:23:43;;;;;;;13.30;6.60;;;;;;;8.08;100.00;98137.81;5173428;27;20511;-53
2022/09/18 00:26:12;;;;;;;14.27;7.35;;;;;;;7.93;100.00;98130.59;5173576;27;20049;-55
2022/09/18 00:28:38;;;;;;;15.73;6.65;;;;;;;7.97;100.00;98115.06;5173312;27;20054;-55
2022/09/18 00:31:05;;;;;;;13.07;6.57;;;;;;;7.97;100.00;98123.25;5173576;27;20394;-56
2022/09/18 00:33:32;;;;;;;11.57;6.13;;;;;;;8.06;100.00;98123.72;5173350;27;20050;-56
2022/09/18 00:36:00;;;;;;;14.38;6.18;;;;;;;7.95;100.00;98122.84;5173364;27;20093;-59
2022/09/18 00:38:28;;;;;;;10.13;6.47;;;;;;;7.78;100.00;98113.28;5173251;27;20042;-56
2022/09/18 00:40:54;;;;;;;17.52;7.22;;;;;;;7.93;100.00;98108.75;5173634;27;20046;-53
2022/09/18 00:43:23;;;;;;;10.55;6.22;;;;;;;7.95;100.00;98112.69;5173286;27;20497;-54
2022/09/18 00:45:54;;;;;;;15.52;6.38;;;;;;;7.81;100.00;98118.00;5173356;27;20060;-58
2022/09/18 00:48:22;;;;;;;18.17;6.90;;;;;;;7.85;100.00;98112.59;5173152;27;20137;-55
2022/09/18 00:50:48;;;;;;;17.02;7.72;;;;;;;7.85;100.00;98120.78;5172957;27;20054;-57
2022/09/18 00:53:15;;;;;;;15.70;6.90;;;;;;;7.86;100.00;98119.59;5173156;27;20096;-55
2022/09/18 00:55:41;;;;;;;12.95;7.18;;;;;;;7.82;100.00;98125.03;5172833;27;20046;-54
2022/09/18 00:58:08;;;;;;;22.58;7.20;;;;;;;7.86;100.00;98109.47;5173078;27;20049;-57
2022/09/18 01:00:35;;;;;;;16.65;6.45;;;;;;;7.90;100.00;98104.84;5172936;27;20183;-55
2022/09/18 01:03:02;;;;;;;15.02;7.30;;;;;;;7.93;100.00;98109.56;5172846;27;20046;-57
2022/09/18 01:05:41;;;;;;;17.40;7.38;;;;;;;7.91;100.00;98120.06;5171811;27;20556;-57
2022/09/18 01:08:24;;;;;;;19.55;7.90;;;;;;;7.79;100.00;98114.84;5173105;27;20145;-57
2022/09/18 01:11:04;;;;;;;14.20;7.50;;;;;;;7.71;100.00;98121.38;5172806;27;20137;-58
2022/09/18 01:13:37;;;;;;;19.27;6.93;;;;;;;7.86;100.00;98120.38;5173031;27;20583;-57
2022/09/18 01:16:10;;;;;;;22.00;8.40;;;;;;;7.75;100.00;98109.34;5173041;27;20085;-57
2022/09/18 01:18:42;;;;;;;18.75;8.18;;;;;;;7.82;100.00;98107.88;5172640;27;20054;-55
2022/09/18 01:21:11;;;;;;;15.02;7.65;;;;;;;7.81;100.00;98115.28;5172626;27;20101;-56
2022/09/18 01:24:09;;;;;;;15.95;7.00;;;;;;;7.77;100.00;98106.25;5172814;27;20133;-54
2022/09/18 01:26:49;;;;;;;16.50;7.10;;;;;;;7.76;100.00;98110.13;5172500;27;20520;-54
2022/09/18 01:29:24;;;;;;;16.27;7.50;;;;;;;7.82;100.00;98114.09;5172840;27;20046;-57
2022/09/18 01:31:55;;;;;;;13.52;7.05;;;;;;;7.73;100.00;98106.22;5172251;27;20060;-57
2022/09/18 01:34:27;;;;;;;17.73;8.35;;;;;;;7.84;100.00;98097.38;5172217;27;20056;-57
2022/09/18 01:37:02;;;;;;;14.90;6.97;;;;;;;7.85;100.00;98098.94;5172333;27;20532;-56
2022/09/18 01:39:33;;;;;;;17.00;8.00;;;;;;;7.81;100.00;98096.16;5172550;27;20053;-58
2022/09/18 01:42:03;;;;;;;17.10;7.53;;;;;;;7.82;100.00;98089.53;5172317;27;20057;-57
2022/09/18 01:44:33;;;;;;;15.95;7.82;;;;;;;7.79;100.00;98087.56;5172435;27;20046;-57
2022/09/18 01:47:02;;;;;;;14.73;7.70;;;;;;;7.87;100.00;98094.69;5172349;27;20049;-57
2022/09/18 01:49:36;;;;;;;16.92;7.60;;;;;;;7.81;100.00;98104.34;5172200;27;20056;-56
2022/09/18 01:52:08;;;;;;;19.13;7.63;;;;;;;7.69;100.00;98099.13;5172368;27;20053;-56
2022/09/18 01:54:39;;;;;;;12.00;7.35;;;;;;;7.71;100.00;98102.28;5172057;27;20054;-57
2022/09/18 01:57:11;;;;;;;13.80;7.22;;;;;;;7.75;100.00;98108.56;5172266;27;20133;-55
2022/09/18 01:59:43;;;;;;;15.52;8.25;;;;;;;7.76;100.00;98105.47;5171917;27;20053;-55
2022/09/18 02:02:17;;;;;;;16.15;8.38;;;;;;;7.73;100.00;98102.69;5172220;27;20046;-54
2022/09/18 02:04:45;;;;;;;;;;;;;;;7.76;100.00;98104.66;5172616;27;20054;-57
2022/09/18 02:07:18;;;;;;;14.68;7.60;;;;;;;7.80;100.00;98102.78;5172185;27;19944;-56
2022/09/18 02:09:45;;;;;;;16.87;8.33;;;;;;;7.85;100.00;98104.41;5172234;27;20098;-57
2022/09/18 02:12:14;;;;;;;16.55;7.95;;;;;;;7.84;100.00;98106.34;5171929;27;20046;-55
2022/09/18 02:14:45;;;;;;;12.15;7.50;;;;;;;7.82;100.00;98105.13;5172225;27;20497;-56
2022/09/18 02:17:16;;;;;;;15.68;8.15;;;;;;;7.83;100.00;98099.31;5174143;27;20054;-54
2022/09/18 02:19:46;;;;;;;16.38;7.85;;;;;;;7.85;100.00;98107.91;5175760;27;20050;-54
2022/09/18 02:22:17;;;;;;;15.35;7.35;;;;;;;7.84;100.00;98119.22;5175591;27;20056;-55
2022/09/18 02:24:46;;;;;;;15.82;7.15;;;;;;;7.89;100.00;98119.63;5175410;27;20049;-58
2022/09/18 02:27:14;;;;;;;12.80;7.05;;;;;;;7.57;100.00;98118.50;5175405;27;20050;-53
2022/09/18 02:29:43;;;;;;;15.80;8.85;;;;;;;7.83;100.00;98115.69;5175375;27;20106;-56
2022/09/18 02:32:09;;;;;;;18.85;8.63;;;;;;;7.79;100.00;98112.13;5175728;27;20497;-55
2022/09/18 02:34:36;;;;;;;17.33;8.00;;;;;;;7.74;100.00;98105.06;5175318;27;20050;-56
2022/09/18 02:37:13;;;;;;;15.52;8.20;;;;;;;7.83;100.00;98104.78;5175550;27;20054;-55
2022/09/18 02:39:54;;;;;;;13.68;7.13;;;;;;;7.85;100.00;98107.91;5175248;27;20102;-57
2022/09/18 02:42:33;;;;;;;16.17;7.88;;;;;;;7.82;100.00;98116.84;5175296;27;20046;-55
2022/09/18 02:45:09;;;;;;;17.52;8.77;;;;;;;7.89;100.00;98111.44;5175207;27;20106;-55
2022/09/18 02:47:52;;;;;;;13.68;7.72;;;;;;;7.90;100.00;98112.25;5175068;27;20493;-57
2022/09/18 02:50:31;;;;;;;16.70;7.45;;;;;;;7.86;100.00;98114.94;5174992;27;20058;-57
2022/09/18 02:53:04;;;;;;;12.68;7.68;;;;;;;7.84;100.00;98113.75;5175114;27;20056;-56
2022/09/18 02:55:40;;;;;;;12.90;7.43;;;;;;;7.81;100.00;98112.53;5175010;27;20049;-54
2022/09/18 02:58:15;;;;;;;15.05;7.15;;;;;;;7.77;100.00;98117.19;5174818;27;20497;-54
2022/09/18 03:00:44;;;;;;;14.65;7.28;;;;;;;7.72;100.00;98117.50;5175146;27;20058;-54
2022/09/18 03:03:13;;;;;;;11.32;7.40;;;;;;;7.69;100.00;98119.00;5174721;27;20050;-54
2022/09/18 03:05:39;;;;;;;10.18;7.57;;;;;;;7.64;100.00;98107.66;5174694;27;20425;-56
2022/09/18 03:08:06;;;;;;;15.23;8.05;;;;;;;7.64;100.00;98097.53;5174863;27;20386;-55
2022/09/18 03:10:32;;;;;;;12.45;7.25;;;;;;;7.65;100.00;98093.63;5174692;27;20054;-57
2022/09/18 03:12:58;;;;;;;14.73;7.55;;;;;;;7.64;100.00;98096.75;5174776;27;20094;-58
2022/09/18 03:15:24;;;;;;;13.82;7.35;;;;;;;7.64;100.00;98085.84;5174541;27;20050;-58
2022/09/18 03:17:51;;;;;;;12.10;7.50;;;;;;;7.66;100.00;98088.97;5174586;27;20425;-57
2022/09/18 03:20:17;;;;;;;13.05;8.23;;;;;;;7.65;100.00;98081.94;5174678;27;20058;-56
2022/09/18 03:22:44;;;;;;;16.05;8.35;;;;;;;7.63;100.00;98084.25;5174346;27;20046;-55
2022/09/18 03:25:12;;;;;;;13.35;7.80;;;;;;;7.60;100.00;98082.25;5174523;27;20054;-54
2022/09/18 03:27:38;;;;;;;13.18;7.45;;;;;;;7.60;100.00;98076.81;5173585;27;20042;-54
2022/09/18 03:30:05;;;;;;;11.02;7.03;;;;;;;7.60;100.00;98077.63;5174553;27;20490;-54
2022/09/18 03:32:32;;;;;;;23.05;8.23;;;;;;;7.58;100.00;98070.97;5174523;27;20043;-58
2022/09/18 03:34:59;;;;;;;10.77;6.82;;;;;;;7.55;100.00;98072.47;5174372;27;20050;-54
2022/09/18 03:37:25;;;;;;;19.02;7.85;;;;;;;7.53;100.00;98077.50;5174206;27;20050;-56
2022/09/18 03:39:51;;;;;;;16.42;7.25;;;;;;;7.54;100.00;98074.41;5174319;27;20102;-54
2022/09/18 03:42:17;;;;;;;19.33;7.68;;;;;;;7.44;100.00;98083.25;5174168;27;20046;-53
2022/09/18 03:44:43;;;;;;;11.15;6.70;;;;;;;7.46;100.00;98072.78;5174009;27;20633;-55
2022/09/18 03:47:10;;;;;;;17.10;7.82;;;;;;;7.46;100.00;98069.25;5174450;27;20046;-54
2022/09/18 03:49:36;;;;;;;18.08;7.13;;;;;;;7.42;100.00;98073.88;5174425;27;20600;-54
2022/09/18 03:52:03;;;;;;;13.18;6.85;;;;;;;7.40;100.00;98068.03;5174231;27;20050;-57
2022/09/18 03:54:29;;;;;;;17.15;7.68;;;;;;;7.44;100.00;98063.38;5174525;27;20130;-54
2022/09/18 03:56:55;;;;;;;13.02;7.25;;;;;;;7.41;100.00;98058.69;5173963;27;20050;-58
2022/09/18 03:59:22;;;;;;;14.18;7.25;;;;;;;7.45;100.00;98054.03;5174266;27;20054;-54
2022/09/18 04:01:48;;;;;;;13.35;7.35;;;;;;;7.46;100.00;98050.97;5173873;27;20078;-55
2022/09/18 04:04:14;;;;;;;13.27;7.45;;;;;;;7.49;100.00;98058.38;5173801;27;20046;-56
2022/09/18 04:06:40;;;;;;;13.82;6.85;;;;;;;7.50;100.00;98064.63;5173909;27;20057;-58
2022/09/18 04:09:07;;;;;;;18.40;7.03;;;;;;;7.50;100.00;98068.16;5173805;27;20058;-55
2022/09/18 04:11:33;;;;;;;12.90;7.03;;;;;;;7.57;100.00;98069.41;5173839;27;20084;-54
2022/09/18 04:14:00;;;;;;;17.73;7.38;;;;;;;7.56;100.00;98068.59;5173776;27;20053;-56
2022/09/18 04:16:26;;;;;;;14.32;6.53;;;;;;;7.68;100.00;98070.28;5173758;27;20050;-56
2022/09/18 04:18:52;;;;;;;9.55;5.90;;;;;;;7.63;100.00;98078.78;5173624;27;20046;-54
2022/09/18 04:21:18;;;;;;;16.70;6.72;;;;;;;7.61;100.00;98083.84;5173489;27;20544;-57
2022/09/18 04:23:44;;;;;;;15.38;7.65;;;;;;;7.74;100.00;98075.03;5173513;27;20133;-54
2022/09/18 04:26:11;;;;;;;23.10;7.35;;;;;;;7.93;100.00;98087.75;5173593;27;20405;-56
2022/09/18 04:28:38;;;;;;;12.43;6.57;;;;;;;7.99;100.00;98090.91;5173354;27;20051;-58
2022/09/18 04:31:04;;;;;;;11.85;6.25;;;;;;;8.04;100.00;98096.03;5173631;27;20629;-57
2022/09/18 04:33:30;;;;;;;16.17;6.63;;;;;;;8.02;100.00;98101.06;5173409;27;20053;-57
2022/09/18 04:35:57;;;;;;;11.07;6.38;;;;;;;7.99;100.00;98099.09;5173198;27;20090;-56
2022/09/18 04:38:26;;;;;;;13.82;6.63;;;;;;;8.04;100.00;98098.00;5173368;27;20046;-56
2022/09/18 04:40:54;;;;;;;13.18;6.80;;;;;;;8.12;100.00;98091.44;5172941;27;20081;-56
2022/09/18 04:43:21;;;;;;;13.02;6.32;;;;;;;8.01;100.00;98088.59;5173175;27;20047;-54
2022/09/18 04:45:48;;;;;;;11.20;6.30;;;;;;;8.17;100.00;98093.84;5173200;27;20532;-56
2022/09/18 04:48:14;;;;;;;11.70;6.30;;;;;;;8.28;100.00;98094.72;5173096;27;20137;-54
2022/09/18 04:50:41;;;;;;;14.32;6.25;;;;;;;8.43;100.00;98093.72;5173141;27;20046;-57
2022/09/18 04:53:07;;;;;;;6.95;5.32;;;;;;;8.54;100.00;98093.03;5173339;27;20128;-55
2022/09/18 04:55:33;;;;;;;11.15;6.93;;;;;;;8.68;100.00;98101.34;5172842;27;20079;-58
2022/09/18 04:57:59;;;;;;;9.77;5.78;;;;;;;8.81;100.00;98099.09;5173218;27;20142;-57
2022/09/18 05:00:27;;;;;;;14.73;5.80;;;;;;;8.79;100.00;98083.06;5173089;27;20050;-53
2022/09/18 05:02:54;;;;;;;12.45;7.15;;;;;;;9.00;100.00;98076.19;5172891;27;20145;-58
2022/09/18 05:05:20;;;;;;;12.65;6.28;;;;;;;9.13;100.00;98074.72;5172943;27;20056;-57
2022/09/18 05:07:47;;;;;;;18.52;7.05;;;;;;;9.12;100.00;98070.41;5172773;27;20568;-58
2022/09/18 05:10:13;;;;;;;15.85;6.47;;;;;;;9.20;100.00;98063.84;5172975;27;20455;-56
2022/09/18 05:12:40;;;;;;;12.45;6.38;;;;;;;9.25;100.00;98047.03;5172703;27;20129;-57
2022/09/18 05:15:07;;;;;;;11.68;6.05;;;;;;;9.33;100.00;98045.94;5172412;27;20054;-56
2022/09/18 05:17:34;;;;;;;9.90;6.38;;;;;;;9.36;100.00;98033.41;5172810;27;20133;-54
2022/09/18 05:20:01;;;;;;;9.38;5.97;;;;;;;9.40;100.00;98018.59;5172931;27;20050;-57
2022/09/18 05:22:27;;;;;;;9.63;6.35;;;;;;;9.51;100.00;98021.38;5172595;27;20137;-57
2022/09/18 05:24:53;;;;;;;15.35;6.30;;;;;;;9.50;100.00;98019.03;5172894;27;20085;-58
2022/09/18 05:27:19;;;;;;;12.88;6.35;;;;;;;9.60;100.00;98024.53;5172413;27;20046;-57
2022/09/18 05:29:46;;;;;;;11.20;5.97;;;;;;;9.74;100.00;98020.28;5172594;27;20046;-56
2022/09/18 05:32:12;;;;;;;12.05;6.20;;;;;;;9.82;100.00;98014.41;5172457;27;20493;-58
2022/09/18 05:34:39;;;;;;;11.85;5.97;;;;;;;9.83;100.00;98004.25;5172283;27;20054;-56
2022/09/18 05:37:05;;;;;;;14.40;6.35;;;;;;;9.91;100.00;97997.63;5172319;27;20417;-55
2022/09/18 05:39:31;;;;;;;20.83;6.45;;;;;;;9.96;100.00;98001.94;5172660;27;20046;-55
2022/09/18 05:41:57;;;;;;;12.32;6.35;;;;;;;9.99;100.00;97984.72;5172492;27;20473;-56
2022/09/18 05:44:26;;;;;;;14.57;7.30;;;;;;;9.90;100.00;97977.69;5172635;27;20057;-57
2022/09/18 05:46:52;;;;;;;19.27;6.95;;;;;;;9.88;100.00;97990.19;5172647;27;20071;-59
2022/09/18 05:49:18;;;;;;;16.85;8.20;;;;;;;10.02;100.00;97992.94;5172438;27;20105;-55
2022/09/18 05:51:45;;;;;;;16.85;6.38;;;;;;;10.10;100.00;97986.31;5176172;27;20157;-56
2022/09/18 05:54:12;;;;;;;13.20;7.13;;;;;;;10.19;100.00;97958.53;5179346;27;20563;-56
2022/09/18 05:56:38;;;;;;;10.77;6.57;;;;;;;10.29;100.00;97930.38;5179277;27;20509;-57
2022/09/18 05:59:04;;;;;;;13.00;6.55;;;;;;;10.34;100.00;97931.97;5179077;27;20042;-57
2022/09/18 06:01:31;;;;;;;13.95;6.78;;;;;;;10.38;100.00;97927.25;5178940;27;20050;-55
2022/09/18 06:03:58;;;;;;;16.35;7.10;;;;;;;10.39;100.00;97897.91;5178945;27;20054;-56
2022/09/18 06:06:27;;;;;;;13.27;6.20;;;;;;;10.43;100.00;97887.69;5179183;27;20050;-55
2022/09/18 06:08:54;;;;;;;13.38;6.82;;;;;;;10.34;100.00;97908.09;5179066;27;20057;-55
2022/09/18 06:11:20;;;;;;;14.63;6.80;;;;;;;10.57;100.00;97913.13;5179146;27;20046;-58
2022/09/18 06:13:47;;;;;;;12.77;6.82;;;;;;;10.74;100.00;97888.81;5178731;27;20046;-58
2022/09/18 06:16:14;;;;;;;11.07;6.60;;;;;;;10.84;100.00;97855.09;5178965;27;20065;-54
2022/09/18 06:18:40;;;;;;;14.05;6.32;;;;;;;10.99;100.00;97834.63;5178991;27;20050;-55
2022/09/18 06:21:07;;;;;;;13.13;6.70;;;;;;;11.12;100.00;97848.69;5178832;27;20050;-57
2022/09/18 06:23:34;;;;;;;10.85;5.70;;;;;;;11.24;100.00;97839.22;5179011;27;20052;-58
2022/09/18 06:26:03;;;;;;;10.68;6.55;;;;;;;11.41;100.00;97824.59;5178529;27;20057;-56
2022/09/18 06:28:31;;;;;;;14.95;6.72;;;;;;;11.49;100.00;97806.09;5178770;27;20046;-57
2022/09/18 06:30:57;;;;;;;14.60;5.93;;;;;;;11.65;100.00;97786.38;5178840;27;20046;-55
2022/09/18 06:33:23;;;;;;;8.25;6.15;;;;;;;11.80;100.00;97759.59;5178709;27;20497;-57
2022/09/18 06:35:50;;;;;;;9.82;5.80;;;;;;;11.77;100.00;97690.56;5178424;27;20509;-59
2022/09/18 06:38:17;;;;;;;10.98;5.70;;;;;;;11.94;100.00;97650.41;5178805;27;20050;-58
2022/09/18 06:40:48;;;;;;;6.72;4.95;;;;;;;12.18;100.00;97678.75;5178386;27;20505;-58
2022/09/18 06:43:15;;;;;;;10.13;5.28;;;;;;;12.62;100.00;97556.00;5178529;27;20466;-55
2022/09/18 06:45:41;;;;;;;9.00;5.20;;;;;;;12.82;100.00;97428.81;5178744;27;20058;-56
2022/09/18 06:48:07;;;;;;;11.68;6.13;;;;;;;12.82;100.00;97322.34;5178330;27;20144;-58
2022/09/18 06:50:33;;;;;;;9.00;5.55;;;;;;;12.76;100.00;97337.78;5178916;27;20046;-57
2022/09/18 06:53:04;;;;;;;11.93;6.03;;;;;;;12.86;100.00;97254.31;5178714;27;20046;-58
2022/09/18 06:55:30;;;;;;;12.02;5.13;;;;;;;12.42;100.00;97316.84;5178284;27;20092;-58
2022/09/18 06:57:57;;;;;;;13.25;5.38;;;;;;;12.43;100.00;97340.41;5178435;27;20122;-58
2022/09/18 07:00:25;;;;;;;6.82;5.35;;;;;;;12.64;100.00;97330.94;5178280;27;20070;-55
2022/09/18 07:02:56;;;;;;;7.93;5.40;;;;;;;12.80;100.00;97247.00;5176831;27;20069;-58
2022/09/18 07:05:23;;;;;;;7.85;5.57;;;;;;;12.68;100.00;97183.19;5174774;27;20137;-58
2022/09/18 07:07:49;;;;;;;10.30;5.93;;;;;;;12.94;100.00;97206.19;5174650;27;20050;-58
2022/09/18 07:10:15;;;;;;;8.93;5.90;;;;;;;12.55;100.00;97284.00;5174704;27;20057;-57
2022/09/18 07:12:45;;;;;;;8.65;5.75;;;;;;;12.75;100.00;97365.72;5175085;27;20058;-55
2022/09/18 07:15:11;;;;;;;14.40;6.47;;;;;;;12.80;100.00;97307.47;5174600;27;20106;-55
2022/09/18 07:17:38;;;;;;;11.10;6.05;;;;;;;12.19;100.00;97341.59;5175041;27;20410;-55
2022/09/18 07:20:05;;;;;;;11.40;6.43;;;;;;;12.71;100.00;97376.78;5174880;27;20053;-58
2022/09/18 07:22:31;;;;;;;16.25;7.25;;;;;;;12.57;100.00;97399.81;5174676;27;20144;-58
2022/09/18 07:24:58;;;;;;;8.30;6.07;;;;;;;12.40;100.00;97433.91;5174634;27;20066;-58
2022/09/18 07:27:24;;;;;;;11.07;6.28;;;;;;;12.54;100.00;97507.09;5174621;27;20046;-56
2022/09/18 07:29:50;;;;;;;10.30;6.15;;;;;;;12.67;100.00;97462.06;5174469;27;20133;-55
2022/09/18 07:32:19;;;;;;;8.82;6.57;;;;;;;12.73;100.00;97379.88;5174562;27;20553;-55
2022/09/18 07:34:46;;;;;;;10.85;6.65;;;;;;;12.44;100.00;97371.41;5174351;27;20402;-56
2022/09/18 07:37:12;;;;;;;16.33;7.25;;;;;;;12.60;100.00;97387.97;5174388;27;20055;-55
2022/09/18 07:39:39;;;;;;;10.98;7.25;;;;;;;12.65;100.00;97376.47;5174707;27;20050;-55
2022/09/18 07:42:05;;;;;;;14.95;7.22;;;;;;;12.64;100.00;97412.66;5174294;27;20050;-56
2022/09/18 07:44:33;;;;;;;12.15;7.05;;;;;;;12.45;100.00;97397.66;5174626;27;20146;-57
2022/09/18 07:46:59;;;;;;;13.73;7.35;;;;;;;12.63;100.00;97387.16;5174325;27;20053;-58
2022/09/18 07:49:25;;;;;;;14.60;7.45;;;;;;;12.55;100.00;97369.22;5174362;27;20054;-56
2022/09/18 07:51:52;;;;;;;11.85;7.40;;;;;;;12.58;100.00;97318.13;5174217;27;20042;-57
2022/09/18 07:54:21;;;;;;;13.35;7.53;;;;;;;13.02;100.00;97261.78;5173860;27;20125;-58
2022/09/18 07:56:47;;;;;;;15.60;8.57;;;;;;;12.98;100.00;97194.31;5174136;27;20053;-58
2022/09/18 07:59:13;;;;;;;17.58;8.18;;;;;;;12.92;100.00;97139.03;5174117;27;20050;-55
2022/09/18 08:01:40;;;;;;;11.63;7.93;;;;;;;13.08;100.00;97139.06;5174004;27;20473;-57
2022/09/18 08:04:06;;;;;;;14.35;8.25;;;;;;;12.89;100.00;97198.44;5173836;27;20050;-57
2022/09/18 08:06:32;;;;;;;13.10;8.07;;;;;;;12.64;100.00;97236.72;5174436;27;20128;-58
2022/09/18 08:08:59;;;;;;;14.90;8.80;;;;;;;13.19;100.00;97224.06;5173955;27;20504;-58
2022/09/18 08:11:25;;;;;;;15.25;8.50;;;;;;;12.85;100.00;97227.22;5174150;27;20133;-58
2022/09/18 08:13:52;;;;;;;15.98;8.55;;;;;;;12.85;100.00;97262.97;5173060;27;20046;-58
2022/09/18 08:16:20;;;;;;;16.92;8.63;;;;;;;12.75;100.00;97295.00;5173931;27;20074;-55
2022/09/18 08:18:47;;;;;;;15.18;8.80;;;;;;;13.02;100.00;97222.50;5173740;27;20046;-58
2022/09/18 08:21:13;;;;;;;11.82;6.95;;;;;;;12.79;100.00;97163.69;5155216;27;20050;-55
2022/09/18 08:23:40;;;;;;;13.02;6.57;;;;;;;12.63;100.00;97273.66;5173815;27;20089;-58
2022/09/18 08:28:49;;;;;;;12.80;7.18;;;;;;;12.87;100.00;97110.09;5173683;27;20130;-57
2022/09/18 08:31:17;;;;;;;15.40;6.60;;;;;;;13.19;100.00;97112.06;5173325;27;20047;-55
2022/09/18 08:33:45;;;;;;;10.85;6.43;;;;;;;13.08;100.00;97102.53;5173458;27;20516;-59
2022/09/18 08:36:12;;;;;;;11.35;6.00;;;;;;;12.71;100.00;97168.59;5154360;27;20050;-58
2022/09/18 08:38:41;;;;;;;7.90;5.90;;;;;;;13.17;100.00;97161.22;5172990;27;20057;-55
2022/09/18 08:41:24;;;;;;;11.43;6.63;;;;;;;12.81;100.00;97155.81;5173095;27;20050;-58
2022/09/18 08:43:58;;;;;;;11.27;5.97;;;;;;;12.70;100.00;97254.25;5173142;27;20061;-54
2022/09/18 08:46:32;;;;;;;10.53;5.63;;;;;;;13.13;100.00;97265.09;5173532;27;20065;-57
2022/09/18 08:49:11;;;;;;;9.63;5.28;;;;;;;13.29;100.00;97195.56;5172970;27;20053;-58
2022/09/18 08:51:45;;;;;;;13.80;5.20;;;;;;;12.86;100.00;97059.06;5173228;27;20055;-55
2022/09/18 08:54:29;;;;;;;9.45;4.72;;;;;;;13.12;100.00;97158.97;5154223;27;20056;-57
2022/09/18 08:56:57;;;;;;;;;;;;;;;13.22;100.00;97055.38;5153305;27;20099;-55
2022/09/18 08:59:31;;;;;;;10.77;4.82;;;;;;;13.07;100.00;97164.25;5172047;27;20005;-58
2022/09/18 09:02:12;;;;;;;19.92;5.15;;;;;;;13.11;100.00;97184.97;5172731;27;20046;-56
2022/09/18 09:04:39;;;;;;;8.38;5.03;;;;;;;12.75;100.00;97264.75;5172912;27;20134;-56
2022/09/18 09:07:15;;;;;;;6.93;5.15;;;;;;;12.76;100.00;97251.78;5172785;27;20064;-57
2022/09/18 09:09:59;;;;;;;9.85;5.35;;;;;;;12.92;100.00;97288.34;5172655;27;20046;-57
2022/09/18 09:12:35;;;;;;;7.50;5.38;;;;;;;13.04;100.00;97270.41;5172684;27;20050;-57
2022/09/18 09:15:32;;;;;;;8.95;5.50;;;;;;;13.09;100.00;97245.13;5172859;27;20046;-58
2022/09/18 09:18:15;;;;;;;13.75;5.72;;;;;;;13.01;100.00;97273.25;5171662;27;20054;-57
2022/09/18 09:20:50;;;;;;;8.93;5.63;;;;;;;12.89;100.00;97286.44;5172632;27;20054;-55
2022/09/18 09:23:22;;;;;;;16.42;7.20;;;;;;;12.58;100.00;97239.19;5172672;27;20046;-56
2022/09/18 09:26:00;;;;;;;14.57;7.03;;;;;;;12.79;100.00;97377.41;5171381;27;20061;-58
2022/09/18 09:28:34;;;;;;;14.52;6.68;;;;;;;12.49;100.00;97445.09;5172448;27;20058;-57
2022/09/18 09:31:06;;;;;;;13.70;6.72;;;;;;;12.86;100.00;97440.50;5172550;27;20046;-57
2022/09/18 09:33:36;;;;;;;13.75;6.75;;;;;;;12.95;100.00;97371.97;5172558;27;20050;-55
2022/09/18 09:36:07;;;;;;;14.70;6.88;;;;;;;13.07;100.00;97332.06;5172580;27;20057;-55
2022/09/18 09:38:43;;;;;;;9.27;6.30;;;;;;;12.77;100.00;97353.09;5172436;27;20054;-58
2022/09/18 09:41:22;;;;;;;9.55;5.63;;;;;;;12.91;100.00;97360.28;5172534;27;20558;-58
2022/09/18 09:43:58;;;;;;;12.77;6.25;;;;;;;12.93;100.00;97355.13;5172419;27;20054;-59
2022/09/18 09:46:51;;;;;;;11.50;6.72;;;;;;;12.81;100.00;97375.78;5172127;27;20515;-57
2022/09/18 09:49:23;;;;;;;6.75;5.10;;;;;;;12.59;100.00;97419.41;5172224;27;20046;-58
2022/09/18 09:51:58;;;;;;;11.93;6.55;;;;;;;13.06;100.00;97426.75;5172277;27;20054;-59
2022/09/18 09:54:25;;;;;;;8.10;4.97;;;;;;;13.17;100.00;97421.84;5172045;27;20482;-58
2022/09/18 09:57:02;;;;;;;13.38;5.70;;;;;;;13.18;100.00;97338.09;5171888;27;20050;-58
2022/09/18 09:59:38;;;;;;;12.63;4.97;;;;;;;13.30;100.00;97251.38;5172435;27;20046;-59
2022/09/18 10:02:27;;;;;;;8.40;5.25;;;;;;;12.97;100.00;97269.78;5171982;27;20421;-57
2022/09/18 10:05:01;;;;;;;9.30;5.15;;;;;;;12.98;100.00;97217.09;5171929;27;20050;-58
2022/09/18 10:07:34;;;;;;;7.90;4.60;;;;;;;13.04;100.00;97261.38;5172086;27;20046;-58
2022/09/18 10:10:05;;;;;;;6.18;4.45;;;;;;;13.06;100.00;97138.72;5171958;27;20137;-58
2022/09/18 10:12:44;;;;;;;7.18;4.72;;;;;;;13.36;100.00;97143.09;5172195;27;20175;-58
2022/09/18 10:15:18;;;;;;;9.23;4.53;;;;;;;13.34;100.00;97164.00;5171656;27;20554;-55
2022/09/18 10:17:46;;;;;;;6.85;4.85;;;;;;;12.66;100.00;97301.06;5172202;27;20639;-57
2022/09/18 10:20:17;;;;;;;9.43;5.80;;;;;;;13.31;100.00;97274.94;5171864;27;20056;-59
2022/09/18 10:22:45;;;;;;;10.18;5.28;;;;;;;13.46;100.00;97066.19;5171667;27;20141;-54
2022/09/18 10:25:21;;;;;;;11.32;5.15;;;;;;;13.67;100.00;96998.75;5171653;27;20047;-58
2022/09/18 10:27:47;;;;;;;6.78;4.50;;;;;;;13.26;100.00;97061.59;5171451;27;20553;-57
2022/09/18 10:30:15;;;;;;;7.95;5.93;;;;;;;13.21;100.00;97150.13;5171776;27;20046;-58
2022/09/18 10:32:41;;;;;;;7.35;3.85;;;;;;;13.16;100.00;97137.69;5171222;27;20046;-58
2022/09/18 10:35:41;;;;;;;4.30;3.40;;;;;;;13.41;100.00;97073.00;5171535;27;20107;-57
2022/09/18 10:38:29;;;;;;;9.02;3.42;;;;;;;13.72;100.00;97023.75;5173163;27;20064;-56
2022/09/18 10:40:55;;;;;;;8.30;4.28;;;;;;;13.74;100.00;97020.56;5174816;27;20075;-59
2022/09/18 10:43:22;;;;;;;5.55;3.70;;;;;;;13.59;100.00;96930.09;5174791;27;20046;-58
2022/09/18 10:45:52;;;;;;;6.68;3.28;;;;;;;13.85;100.00;96886.06;5174897;27;20429;-58
2022/09/18 10:48:22;;;;;;;5.38;3.38;;;;;;;13.49;100.00;96876.16;5174808;27;20062;-58
2022/09/18 10:50:52;;;;;;;5.63;2.97;;;;;;;14.21;100.00;96791.22;5174925;27;20050;-58
2022/09/18 10:53:27;;;;;;;5.35;2.97;;;;;;;14.73;100.00;96732.66;5174705;27;20055;-60
2022/09/18 10:55:54;;;;;;;4.35;2.45;;;;;;;15.12;100.00;96647.59;5174529;27;20049;-56
2022/09/18 10:58:28;;;;;;;5.20;3.25;;;;;;;15.09;100.00;96593.31;5175016;27;20549;-57
2022/09/18 11:01:00;;;;;;;6.20;3.33;;;;;;;15.41;100.00;96564.38;5174593;27;20042;-56
2022/09/18 11:03:39;;;;;;;6.22;2.95;;;;;;;15.40;100.00;96535.22;5174501;27;20046;-57
2022/09/18 11:06:08;;;;;;;8.52;3.30;;;;;;;14.86;100.00;96544.22;5174719;27;20401;-58
2022/09/18 11:08:40;;;;;;;6.55;4.18;;;;;;;15.18;100.00;96574.00;5174434;27;20049;-57
2022/09/18 11:11:10;;;;;;;7.30;4.40;;;;;;;15.01;100.00;96504.56;5174561;27;20490;-57
2022/09/18 11:13:44;;;;;;;6.60;3.28;;;;;;;14.74;100.00;96598.28;5174377;27;20424;-58
2022/09/18 11:16:20;;;;;;;3.90;2.92;;;;;;;14.82;100.00;96541.59;5174366;27;20049;-59
2022/09/18 11:18:47;;;;;;;4.68;3.38;;;;;;;14.87;100.00;96521.72;5174455;27;20145;-57
2022/09/18 11:21:13;;;;;;;8.27;5.07;;;;;;;15.04;100.00;96524.94;5174171;27;20053;-55
2022/09/18 11:23:41;;;;;;;4.90;3.85;;;;;;;15.01;100.00;96495.50;5174390;27;20090;-58
2022/09/18 11:26:18;;;;;;;8.13;4.30;;;;;;;14.94;100.00;96477.28;5174151;27;20064;-57
2022/09/18 11:29:01;;;;;;;4.68;3.30;;;;;;;15.17;100.00;96470.38;5174460;27;20052;-55
2022/09/18 11:31:38;;;;;;;7.38;3.83;;;;;;;15.52;100.00;96458.97;5173943;27;20050;-57
2022/09/18 11:34:19;;;;;;;8.88;5.35;;;;;;;15.13;100.00;96468.97;5174323;27;20133;-58
2022/09/18 11:36:49;;;;;;;11.50;5.75;;;;;;;15.05;100.00;96468.53;5174273;27;20046;-54
2022/09/18 11:39:22;;;;;;;9.88;3.60;;;;;;;15.20;100.00;96463.19;5173958;27;20046;-54